createdAt,value
2023-05-16T00:00:43.941Z,9.44
2023-05-16T00:03:12.384Z,9.43
2023-05-16T00:05:39.547Z,9.39
2023-05-16T00:08:06.619Z,9.34
2023-05-16T00:10:33.757Z,9.33
2023-05-16T00:13:02.150Z,9.30
2023-05-16T00:15:32.196Z,9.31
2023-05-16T00:17:59.680Z,9.25
2023-05-16T00:20:28.616Z,9.15
2023-05-16T00:22:56.146Z,9.09
2023-05-16T00:25:23.307Z,9.06
2023-05-16T00:27:50.503Z,9.06
2023-05-16T00:30:17.588Z,9.09
2023-05-16T00:32:44.803Z,9.05
2023-05-16T00:35:12.685Z,8.98
2023-05-16T00:37:39.794Z,8.89
2023-05-16T00:40:07.738Z,8.79
2023-05-16T00:42:36.429Z,8.71
2023-05-16T00:45:05.429Z,8.65
2023-05-16T00:47:32.936Z,8.61
2023-05-16T00:49:59.990Z,8.57
2023-05-16T00:52:27.194Z,8.65
2023-05-16T00:54:54.254Z,8.70
2023-05-16T00:57:21.148Z,8.69
2023-05-16T00:59:48.146Z,8.68
2023-05-16T01:02:15.340Z,8.64
2023-05-16T01:04:43.425Z,8.58
2023-05-16T01:07:10.650Z,8.60
2023-05-16T01:09:37.664Z,8.61
2023-05-16T01:12:42.174Z,8.61
2023-05-16T01:15:16.416Z,8.61
2023-05-16T01:18:02.094Z,8.58
2023-05-16T01:20:41.913Z,8.53
2023-05-16T01:23:46.459Z,8.50
2023-05-16T01:26:16.859Z,8.42
2023-05-16T01:28:45.547Z,8.35
2023-05-16T01:31:12.713Z,8.34
2023-05-16T01:33:39.775Z,8.35
2023-05-16T01:36:14.684Z,8.32
2023-05-16T01:39:14.611Z,8.31
2023-05-16T01:42:06.340Z,8.34
2023-05-16T01:45:10.545Z,8.37
2023-05-16T01:47:38.706Z,8.31
2023-05-16T01:50:10.953Z,8.34
2023-05-16T01:52:46.368Z,8.36
2023-05-16T01:55:47.614Z,8.38
2023-05-16T01:58:15.461Z,8.41
2023-05-16T02:00:42.878Z,8.36
2023-05-16T02:03:10.025Z,8.31
2023-05-16T02:05:38.442Z,8.30
2023-05-16T02:08:05.743Z,8.36
2023-05-16T02:10:33.011Z,8.35
2023-05-16T02:13:00.767Z,8.34
2023-05-16T02:15:29.160Z,8.30
2023-05-16T02:17:56.754Z,8.29
2023-05-16T02:20:24.011Z,8.25
2023-05-16T02:22:51.087Z,8.27
2023-05-16T02:25:18.376Z,8.31
2023-05-16T02:27:45.578Z,8.34
2023-05-16T02:30:13.199Z,8.41
2023-05-16T02:32:41.198Z,8.51
2023-05-16T02:35:09.224Z,8.58
2023-05-16T02:37:36.239Z,8.65
2023-05-16T02:40:05.883Z,8.72
2023-05-16T02:42:33.353Z,8.80
2023-05-16T02:45:00.615Z,8.76
2023-05-16T02:47:27.768Z,8.77
2023-05-16T02:49:54.694Z,8.83
2023-05-16T02:52:21.717Z,8.83
2023-05-16T02:55:00.280Z,8.82
2023-05-16T02:57:31.812Z,8.83
2023-05-16T02:59:59.216Z,8.83
2023-05-16T03:02:26.593Z,8.87
2023-05-16T03:04:53.714Z,8.89
2023-05-16T03:07:20.790Z,8.94
2023-05-16T03:09:47.963Z,9.01
2023-05-16T03:12:14.940Z,9.07
2023-05-16T03:14:41.863Z,9.14
2023-05-16T03:17:10.226Z,9.25
2023-05-16T03:19:37.275Z,9.33
2023-05-16T03:22:04.535Z,9.44
2023-05-16T03:24:31.776Z,9.55
2023-05-16T03:27:00.164Z,9.67
2023-05-16T03:29:27.208Z,9.79
2023-05-16T03:31:54.578Z,9.97
2023-05-16T03:34:21.834Z,10.11
2023-05-16T03:36:49.522Z,10.30
2023-05-16T03:39:17.219Z,10.47
2023-05-16T03:41:44.510Z,10.63
2023-05-16T05:42:39.338Z,19.21
2023-05-16T05:45:07.756Z,19.22
2023-05-16T05:47:34.884Z,19.25
2023-05-16T05:50:02.739Z,19.32
2023-05-16T05:52:32.628Z,19.41
2023-05-16T05:55:00.200Z,19.47
2023-05-16T05:57:27.314Z,19.55
2023-05-16T05:59:54.417Z,19.59
2023-05-16T06:02:23.831Z,19.62
2023-05-16T06:04:50.793Z,19.68
2023-05-16T06:07:18.474Z,19.73
2023-05-16T06:09:45.593Z,19.78
2023-05-16T06:12:12.901Z,19.90
2023-05-16T06:14:39.930Z,20.00
2023-05-16T06:17:07.098Z,20.10
2023-05-16T06:19:34.225Z,20.12
2023-05-16T06:22:01.261Z,20.16
2023-05-16T06:24:29.918Z,20.12
2023-05-16T06:26:56.882Z,20.08
2023-05-16T06:29:24.076Z,20.19
2023-05-16T06:31:51.269Z,20.16
2023-05-16T06:34:18.373Z,20.27
2023-05-16T06:36:45.403Z,20.40
2023-05-16T06:39:12.493Z,20.48
2023-05-16T06:41:39.830Z,20.45
2023-05-16T06:44:07.096Z,20.51
2023-05-16T06:46:34.223Z,20.61
2023-05-16T06:49:01.500Z,20.67
2023-05-16T06:51:28.606Z,20.80
2023-05-16T06:53:55.892Z,20.93
2023-05-16T06:56:23.651Z,21.15
2023-05-16T06:58:51.148Z,21.25
2023-05-16T07:01:18.510Z,21.23
2023-05-16T07:03:45.985Z,21.28
2023-05-16T07:06:13.109Z,21.35
2023-05-16T07:08:40.354Z,21.40
2023-05-16T07:11:07.425Z,21.44
2023-05-16T07:13:36.154Z,21.51
2023-05-16T07:16:03.909Z,21.63
2023-05-16T07:18:31.225Z,21.70
2023-05-16T07:20:58.475Z,21.84
2023-05-16T07:23:25.504Z,21.84
2023-05-16T07:25:53.465Z,21.77
2023-05-16T07:28:20.649Z,21.78
2023-05-16T07:30:47.812Z,21.82
2023-05-16T07:33:14.959Z,21.68
2023-05-16T07:35:42.131Z,21.76
2023-05-16T07:38:09.199Z,21.88
2023-05-16T07:40:36.648Z,21.98
2023-05-16T07:43:04.571Z,22.09
2023-05-16T07:45:31.753Z,22.13
2023-05-16T07:48:24.148Z,22.07
2023-05-16T07:50:51.338Z,22.09
2023-05-16T07:53:18.932Z,22.27
2023-05-16T07:55:45.878Z,22.38
2023-05-16T07:58:12.976Z,22.44
2023-05-16T08:00:40.238Z,22.46
2023-05-16T08:03:07.717Z,22.61
2023-05-16T08:05:35.104Z,22.70
2023-05-16T08:08:02.299Z,22.76
2023-05-16T08:10:29.382Z,22.71
2023-05-16T08:12:56.490Z,22.66
2023-05-16T08:15:23.764Z,22.75
2023-05-16T08:17:51.404Z,22.89
2023-05-16T08:20:18.691Z,22.93
2023-05-16T08:22:45.795Z,22.96
2023-05-16T08:25:13.615Z,23.01
2023-05-16T08:27:40.854Z,23.04
2023-05-16T08:30:08.590Z,22.96
2023-05-16T08:32:35.871Z,22.95
2023-05-16T08:35:03.016Z,23.17
2023-05-16T08:37:31.173Z,23.25
2023-05-16T08:39:58.936Z,23.30
2023-05-16T08:42:26.061Z,23.20
2023-05-16T08:44:53.487Z,23.21
2023-05-16T08:47:23.421Z,23.19
2023-05-16T08:49:51.892Z,23.34
2023-05-16T08:52:19.766Z,23.52
2023-05-16T08:54:50.355Z,23.57
2023-05-16T08:57:22.880Z,23.67
2023-05-16T08:59:50.107Z,23.76
2023-05-16T09:02:17.300Z,23.79
2023-05-16T09:04:44.441Z,23.79
2023-05-16T09:07:12.025Z,23.80
2023-05-16T09:09:39.766Z,23.64
2023-05-16T09:12:07.406Z,23.31
2023-05-16T09:14:35.882Z,23.07
2023-05-16T09:17:07.030Z,23.00
2023-05-16T09:19:41.389Z,22.89
2023-05-16T09:22:15.146Z,22.95
2023-05-16T09:24:43.191Z,23.01
2023-05-16T09:27:10.897Z,23.12
2023-05-16T09:29:40.525Z,23.13
2023-05-16T09:32:14.940Z,23.07
2023-05-16T09:34:46.249Z,22.97
2023-05-16T09:37:13.494Z,22.89
2023-05-16T09:39:46.245Z,22.98
2023-05-16T09:42:14.251Z,23.04
2023-05-16T09:44:42.075Z,23.23
2023-05-16T09:47:09.191Z,23.16
2023-05-16T09:49:37.779Z,23.03
2023-05-16T09:52:05.493Z,23.01
2023-05-16T09:54:33.418Z,23.12
2023-05-16T09:57:03.009Z,23.23
2023-05-16T09:59:31.283Z,23.16
2023-05-16T10:02:00.355Z,23.12
2023-05-16T10:04:27.712Z,23.21
2023-05-16T10:06:56.919Z,23.29
2023-05-16T10:09:24.852Z,23.34
2023-05-16T10:11:52.483Z,23.36
2023-05-16T10:14:19.731Z,23.41
2023-05-16T10:16:47.505Z,23.44
2023-05-16T10:19:16.498Z,23.42
2023-05-16T10:21:46.799Z,23.37
2023-05-16T10:24:13.815Z,23.36
2023-05-16T10:26:40.873Z,23.31
2023-05-16T10:29:07.982Z,23.29
2023-05-16T10:31:34.999Z,23.29
2023-05-16T10:34:02.311Z,23.10
2023-05-16T10:36:29.323Z,23.03
2023-05-16T10:38:56.387Z,23.17
2023-05-16T10:41:23.610Z,23.32
2023-05-16T10:44:00.342Z,23.47
2023-05-16T10:46:28.466Z,23.67
2023-05-16T10:48:57.139Z,23.66
2023-05-16T10:51:38.832Z,23.68
2023-05-16T10:54:11.427Z,23.77
2023-05-16T10:56:38.828Z,23.75
2023-05-16T10:59:06.267Z,23.70
2023-05-16T11:01:34.382Z,23.71
2023-05-16T11:04:08.893Z,23.80
2023-05-16T11:06:47.453Z,23.77
2023-05-16T11:09:14.424Z,23.78
2023-05-16T11:11:52.569Z,23.59
2023-05-16T11:14:34.899Z,23.29
2023-05-16T11:17:15.123Z,23.37
2023-05-16T11:19:49.617Z,23.54
2023-05-16T11:22:19.476Z,23.74
2023-05-16T11:24:57.690Z,23.99
2023-05-16T11:27:25.937Z,24.16
2023-05-16T11:29:54.054Z,24.11
2023-05-16T11:32:22.362Z,24.18
2023-05-16T11:34:50.708Z,24.27
2023-05-16T11:37:18.094Z,24.19
2023-05-16T11:39:45.703Z,24.08
2023-05-16T11:42:13.495Z,24.03
2023-05-16T11:44:41.209Z,23.89
2023-05-16T11:47:08.779Z,23.85
2023-05-16T11:49:35.882Z,23.83
2023-05-16T11:52:03.849Z,23.82
2023-05-16T11:54:32.076Z,23.67
2023-05-16T11:56:59.288Z,23.56
2023-05-16T11:59:27.294Z,23.45
2023-05-16T12:01:54.379Z,23.32
2023-05-16T12:04:22.502Z,23.22
2023-05-16T12:06:59.663Z,23.19
2023-05-16T12:09:26.993Z,23.16
2023-05-16T12:11:54.161Z,23.04
2023-05-16T12:14:21.502Z,22.96
2023-05-16T12:16:52.566Z,22.97
2023-05-16T12:19:21.546Z,22.98
2023-05-16T12:21:58.113Z,22.73
2023-05-16T12:24:33.153Z,22.71
2023-05-16T12:27:01.021Z,22.55
2023-05-16T12:29:29.905Z,22.39
2023-05-16T12:32:07.195Z,22.30
2023-05-16T12:34:36.252Z,22.20
2023-05-16T12:37:05.449Z,22.06
2023-05-16T12:39:42.426Z,22.02
2023-05-16T12:42:14.219Z,21.91
2023-05-16T12:44:46.471Z,21.83
2023-05-16T12:47:23.349Z,21.75
2023-05-16T12:49:55.195Z,21.65
2023-05-16T12:52:29.945Z,21.64
2023-05-16T12:55:04.989Z,21.53
2023-05-16T13:00:23.747Z,21.35
2023-05-16T13:02:56.107Z,21.26
2023-05-16T13:05:28.753Z,21.21
2023-05-16T13:08:00.222Z,21.16
2023-05-16T13:10:37.016Z,21.11
2023-05-16T13:13:13.704Z,21.06
2023-05-16T13:15:50.087Z,21.00
2023-05-16T13:18:22.845Z,21.02
2023-05-16T13:20:52.175Z,20.98
2023-05-16T13:23:21.914Z,20.94
2023-05-16T13:26:00.282Z,20.92
2023-05-16T13:28:33.541Z,20.94
2023-05-16T13:31:06.601Z,20.94
2023-05-16T13:33:37.183Z,20.96
2023-05-16T13:36:09.573Z,20.91
2023-05-16T13:38:47.512Z,20.87
2023-05-16T13:41:19.485Z,20.81
2023-05-16T13:43:49.804Z,20.73
2023-05-16T13:46:22.479Z,20.72
2023-05-16T13:49:01.921Z,20.68
2023-05-16T13:51:32.954Z,20.58
2023-05-16T13:54:05.893Z,20.46
2023-05-16T13:56:36.291Z,20.33
2023-05-16T13:59:07.285Z,20.25
2023-05-16T14:01:44.003Z,20.10
2023-05-16T14:04:13.241Z,19.90
2023-05-16T14:06:45.720Z,19.81
2023-05-16T14:09:24.205Z,19.88
2023-05-16T14:11:53.687Z,19.92
2023-05-16T14:14:26.508Z,19.95
2023-05-16T14:16:55.881Z,19.98
2023-05-16T14:19:26.693Z,19.98
2023-05-16T14:21:53.935Z,19.97
2023-05-16T14:24:21.232Z,19.89
2023-05-16T14:26:48.436Z,19.82
2023-05-16T14:29:15.660Z,19.79
2023-05-16T14:31:43.101Z,19.70
2023-05-16T14:34:10.569Z,19.67
2023-05-16T14:36:37.842Z,19.62
2023-05-16T14:39:04.870Z,19.57
2023-05-16T14:41:31.983Z,19.57
2023-05-16T14:43:59.056Z,19.54
2023-05-16T14:46:26.330Z,19.51
2023-05-16T14:48:53.526Z,19.49
2023-05-16T14:51:20.914Z,19.49
2023-05-16T14:53:47.964Z,19.46
2023-05-16T14:56:15.210Z,19.44
2023-05-16T14:58:42.263Z,19.35
2023-05-16T15:01:09.568Z,19.32
2023-05-16T15:03:53.614Z,19.25
2023-05-16T15:06:24.024Z,19.25
2023-05-16T15:08:51.512Z,19.23
2023-05-16T15:11:18.552Z,19.19
2023-05-16T15:13:46.451Z,19.15
2023-05-16T15:16:13.566Z,19.11
2023-05-16T15:18:41.788Z,19.05
2023-05-16T15:21:09.273Z,19.03
2023-05-16T15:23:36.753Z,19.03
2023-05-16T15:26:04.475Z,19.00
2023-05-16T15:28:31.615Z,18.95
2023-05-16T15:30:58.659Z,18.90
2023-05-16T15:33:25.813Z,18.85
2023-05-16T15:35:53.031Z,18.79
2023-05-16T15:38:20.100Z,18.77
2023-05-16T15:40:49.104Z,18.76
2023-05-16T15:43:19.836Z,18.74
2023-05-16T15:45:46.786Z,18.68
2023-05-16T15:48:13.950Z,18.65
2023-05-16T15:50:42.075Z,18.59
2023-05-16T15:53:09.088Z,18.55
2023-05-16T15:55:37.585Z,18.50
2023-05-16T15:58:05.719Z,18.47
2023-05-16T16:00:32.999Z,18.45
2023-05-16T16:03:00.344Z,18.43
2023-05-16T16:05:27.946Z,18.39
2023-05-16T16:07:55.464Z,18.35
2023-05-16T16:10:24.683Z,18.31
2023-05-16T16:13:04.358Z,18.27
2023-05-16T16:15:33.269Z,18.19
2023-05-16T16:18:01.270Z,18.15
2023-05-16T16:20:28.652Z,18.13
2023-05-16T16:22:56.021Z,18.06
2023-05-16T16:25:23.052Z,18.01
2023-05-16T16:27:50.428Z,17.95
2023-05-16T16:30:17.757Z,17.90
2023-05-16T16:32:44.749Z,17.85
2023-05-16T16:35:12.140Z,17.79
2023-05-16T16:37:39.243Z,17.73
2023-05-16T16:40:09.264Z,17.64
2023-05-16T16:42:38.145Z,17.55
2023-05-16T16:45:06.056Z,17.45
2023-05-16T16:47:34.008Z,17.32
2023-05-16T16:50:01.481Z,17.24
2023-05-16T16:52:29.908Z,17.15
2023-05-16T16:54:57.018Z,17.05
2023-05-16T16:57:24.108Z,16.95
2023-05-16T16:59:51.862Z,16.86
2023-05-16T17:02:19.090Z,16.72
2023-05-16T17:04:46.360Z,16.59
2023-05-16T17:07:14.047Z,16.46
2023-05-16T17:09:43.092Z,16.34
2023-05-16T17:12:18.893Z,16.27
2023-05-16T17:14:47.803Z,16.13
2023-05-16T17:17:15.862Z,16.01
2023-05-16T17:19:42.997Z,15.91
2023-05-16T17:22:10.013Z,15.81
2023-05-16T17:24:37.217Z,15.73
2023-05-16T17:27:04.842Z,15.65
2023-05-16T17:29:31.831Z,15.56
2023-05-16T17:31:59.206Z,15.44
2023-05-16T17:34:26.926Z,15.31
2023-05-16T17:36:54.119Z,15.24
2023-05-16T17:39:21.452Z,15.12
2023-05-16T17:41:48.602Z,15.07
2023-05-16T17:44:15.582Z,14.98
2023-05-16T17:46:43.108Z,14.86
2023-05-16T17:49:10.737Z,14.77
2023-05-16T17:51:50.356Z,14.70
2023-05-16T17:54:18.671Z,14.61
2023-05-16T17:56:46.668Z,14.56
2023-05-16T17:59:13.964Z,14.49
2023-05-16T18:01:41.175Z,14.42
2023-05-16T18:04:08.381Z,14.32
2023-05-16T18:06:39.189Z,14.25
2023-05-16T18:09:07.303Z,14.19
2023-05-16T18:11:34.826Z,14.14
2023-05-16T18:14:02.199Z,14.08
2023-05-16T18:16:32.360Z,14.04
2023-05-16T18:18:59.860Z,13.98
2023-05-16T18:21:26.952Z,13.94
2023-05-16T18:23:59.096Z,13.85
2023-05-16T18:26:27.822Z,13.76
2023-05-16T18:28:55.019Z,13.69
2023-05-16T18:31:22.442Z,13.65
2023-05-16T18:33:50.022Z,13.65
2023-05-16T18:36:17.216Z,13.61
2023-05-16T18:38:44.585Z,13.56
2023-05-16T18:41:11.697Z,13.52
2023-05-16T18:43:41.876Z,13.50
2023-05-16T18:46:09.338Z,13.46
2023-05-16T18:48:36.505Z,13.37
2023-05-16T18:51:03.944Z,13.28
2023-05-16T18:53:31.221Z,13.16
2023-05-16T18:55:58.865Z,13.10
2023-05-16T18:58:26.280Z,13.01
2023-05-16T19:00:53.572Z,12.94
2023-05-16T19:03:20.809Z,12.89
2023-05-16T19:05:48.331Z,12.89
2023-05-16T19:08:15.576Z,12.87
2023-05-16T19:10:42.672Z,12.76
2023-05-16T19:13:10.062Z,12.71
2023-05-16T19:15:37.842Z,12.61
2023-05-16T19:18:05.518Z,12.53
2023-05-16T19:20:35.771Z,12.42
2023-05-16T19:23:04.104Z,12.37
2023-05-16T19:25:31.484Z,12.33
2023-05-16T19:27:59.232Z,12.32
2023-05-16T19:30:26.620Z,12.30
2023-05-16T19:32:54.122Z,12.30
2023-05-16T19:35:22.006Z,12.28
2023-05-16T19:37:48.982Z,12.26
2023-05-16T19:40:17.426Z,12.25
2023-05-16T19:42:44.777Z,12.23
2023-05-16T19:45:12.134Z,12.15
2023-05-16T19:47:39.768Z,12.08
2023-05-16T19:50:07.458Z,12.05
2023-05-16T19:52:34.898Z,12.03
2023-05-16T19:55:02.507Z,12.01
2023-05-16T19:57:31.591Z,11.99
2023-05-16T19:59:58.798Z,11.93
2023-05-16T20:02:26.211Z,11.88
2023-05-16T20:04:53.981Z,11.84
2023-05-16T20:07:21.368Z,11.82
2023-05-16T20:09:48.518Z,11.80
2023-05-16T20:12:15.936Z,11.78
2023-05-16T20:14:43.140Z,11.76
2023-05-16T20:17:10.656Z,11.73
2023-05-16T20:19:43.710Z,11.68
2023-05-16T20:22:11.119Z,11.64
2023-05-16T20:24:38.268Z,11.63
2023-05-16T20:27:05.515Z,11.59
2023-05-16T20:29:33.989Z,11.57
2023-05-16T20:32:03.390Z,11.50
2023-05-16T20:34:33.430Z,11.47
2023-05-16T20:37:00.937Z,11.45
2023-05-16T20:39:28.950Z,11.42
2023-05-16T20:41:56.144Z,11.38
2023-05-16T20:44:23.357Z,11.36
2023-05-16T20:46:50.691Z,11.36
2023-05-16T20:49:17.804Z,11.32
2023-05-16T20:51:44.927Z,11.28
2023-05-16T20:54:13.170Z,11.26
2023-05-16T20:56:40.205Z,11.21
2023-05-16T20:59:07.303Z,11.17
2023-05-16T21:01:34.358Z,11.11
2023-05-16T21:04:01.763Z,11.08
2023-05-16T21:06:28.929Z,11.10
2023-05-16T21:08:56.261Z,11.10
2023-05-16T21:11:23.632Z,11.05
2023-05-16T21:13:50.789Z,11.00
2023-05-16T21:16:17.911Z,10.97
2023-05-16T21:18:45.099Z,10.95
2023-05-16T21:21:12.244Z,10.91
2023-05-16T21:23:39.527Z,10.87
2023-05-16T21:26:06.719Z,10.85
2023-05-16T21:28:36.943Z,10.82
2023-05-16T21:31:08.165Z,10.78
2023-05-16T21:33:35.269Z,10.75
2023-05-16T21:36:02.391Z,10.75
2023-05-16T21:38:29.427Z,10.72
2023-05-16T21:40:58.132Z,10.70
2023-05-16T21:43:25.307Z,10.70
2023-05-16T21:45:52.549Z,10.66
2023-05-16T21:48:19.984Z,10.58
2023-05-16T21:50:47.079Z,10.57
2023-05-16T21:53:14.164Z,10.52
2023-05-16T21:55:41.216Z,10.52
2023-05-16T21:58:09.199Z,10.50
2023-05-16T22:00:36.500Z,10.45
2023-05-16T22:03:03.737Z,10.40
2023-05-16T22:05:31.460Z,10.38
2023-05-16T22:07:58.650Z,10.35
2023-05-16T22:10:25.681Z,10.26
2023-05-16T22:12:52.791Z,10.20
2023-05-16T22:15:19.968Z,10.18
2023-05-16T22:17:48.229Z,10.21
2023-05-16T22:20:15.591Z,10.24
2023-05-16T22:22:44.733Z,10.21
2023-05-16T22:25:11.820Z,10.17
2023-05-16T22:27:39.411Z,10.10
2023-05-16T22:30:07.358Z,10.03
2023-05-16T22:32:34.451Z,10.00
2023-05-16T22:35:01.810Z,9.98
2023-05-16T22:37:32.452Z,9.95
2023-05-16T22:39:59.568Z,9.91
2023-05-16T22:42:26.529Z,9.90
2023-05-16T22:44:53.717Z,9.87
2023-05-16T22:47:21.026Z,9.87
2023-05-16T22:49:48.248Z,9.83
2023-05-16T22:52:15.835Z,9.79
2023-05-16T22:54:42.932Z,9.73
2023-05-16T22:57:09.981Z,9.71
2023-05-16T22:59:37.023Z,9.70
2023-05-16T23:02:04.033Z,9.70
2023-05-16T23:04:31.051Z,9.68
2023-05-16T23:06:58.060Z,9.67
2023-05-16T23:09:25.414Z,9.68
2023-05-16T23:11:52.765Z,9.64
2023-05-16T23:14:19.899Z,9.64
2023-05-16T23:16:46.955Z,9.63
2023-05-16T23:19:14.154Z,9.59
2023-05-16T23:21:41.302Z,9.54
2023-05-16T23:24:08.518Z,9.49
2023-05-16T23:26:35.816Z,9.48
2023-05-16T23:29:03.149Z,9.46
2023-05-16T23:31:30.214Z,9.47
2023-05-16T23:33:57.389Z,9.47
2023-05-16T23:36:25.037Z,9.44
2023-05-16T23:38:52.155Z,9.40
2023-05-16T23:41:19.527Z,9.36
2023-05-16T23:43:46.548Z,9.35
2023-05-16T23:46:13.875Z,9.34
2023-05-16T23:48:41.102Z,9.35
2023-05-16T23:51:08.341Z,9.34
2023-05-16T23:53:35.658Z,9.35
2023-05-16T23:56:02.737Z,9.39
2023-05-16T23:58:29.797Z,9.43
